createdAt,value
2023-03-28T00:04:19.483Z,17.3
2023-03-28T00:09:55.693Z,17.2
2023-03-28T00:15:32.366Z,17.1
2023-03-28T00:21:07.966Z,17.1
2023-03-28T00:32:03.796Z,16.9
2023-03-28T00:37:55.857Z,16.8
2023-03-28T00:43:31.836Z,16.8
2023-03-28T00:49:40.996Z,16.7
2023-03-28T00:55:16.978Z,16.8
2023-03-28T01:00:52.558Z,16.9
2023-03-28T01:06:29.948Z,16.9
2023-03-28T01:12:06.199Z,16.8
2023-03-28T01:17:44.920Z,16.7
2023-03-28T01:23:13.215Z,16.6
2023-03-28T01:28:07.185Z,16.6
2023-03-28T01:33:43.222Z,16.5
2023-03-28T01:39:20.602Z,16.4
2023-03-28T01:44:56.955Z,16.3
2023-03-28T01:50:33.302Z,16.3
2023-03-28T01:56:15.780Z,16.5
2023-03-28T02:01:52.675Z,16.7
2023-03-28T02:07:28.979Z,16.6
2023-03-28T02:13:20.844Z,16.5
2023-03-28T02:19:12.077Z,16.4
2023-03-28T02:24:48.230Z,16.3
2023-03-28T02:30:40.280Z,16.3
2023-03-28T02:36:31.949Z,16.2
2023-03-28T02:42:23.081Z,16.1
2023-03-28T02:48:18.354Z,16.1
2023-03-28T02:53:47.999Z,16.1
2023-03-28T02:59:39.269Z,16.3
2023-03-28T03:05:17.058Z,16.4
2023-03-28T03:10:53.318Z,16.4
2023-03-28T03:16:29.774Z,16.3
2023-03-28T03:22:06.271Z,16.2
2023-03-28T03:27:28.591Z,16.1
2023-03-28T03:33:16.706Z,16.1
2023-03-28T03:38:53.854Z,15.9
2023-03-28T03:44:30.290Z,15.9
2023-03-28T03:49:56.991Z,16.1
2023-03-28T03:55:33.519Z,16.2
2023-03-28T04:00:54.310Z,16.2
2023-03-28T04:06:43.824Z,16.1
2023-03-28T04:12:20.120Z,16
2023-03-28T04:18:06.321Z,15.9
2023-03-28T04:24:08.385Z,15.8
2023-03-28T04:29:45.314Z,15.8
2023-03-28T04:35:22.224Z,15.7
2023-03-28T04:40:20.117Z,15.9
2023-03-28T04:45:41.480Z,15.9
2023-03-28T04:51:33.590Z,16
2023-03-28T04:57:25.426Z,16
2023-03-28T05:03:02.394Z,16
2023-03-28T05:08:55.140Z,16
2023-03-28T05:14:46.403Z,15.9
2023-03-28T05:20:42.442Z,15.8
2023-03-28T05:26:37.420Z,15.7
2023-03-28T05:32:28.456Z,15.6
2023-03-28T05:38:20.453Z,15.6
2023-03-28T05:44:11.765Z,15.6
2023-03-28T05:50:02.501Z,15.8
2023-03-28T05:55:42.814Z,15.8
2023-03-28T06:01:35.231Z,15.8
2023-03-28T06:07:35.610Z,15.7
2023-03-28T06:13:32.832Z,15.6
2023-03-28T06:19:49.339Z,15.4
2023-03-28T06:25:25.961Z,15.4
2023-03-28T06:31:18.607Z,15.3
2023-03-28T06:37:10.761Z,15.4
2023-03-28T06:43:02.709Z,15.6
2023-03-28T06:48:39.602Z,15.6
2023-03-28T06:54:15.659Z,15.6
2023-03-28T07:00:06.548Z,15.6
2023-03-28T07:06:03.038Z,15.5
2023-03-28T07:11:38.519Z,15.4
2023-03-28T07:17:31.879Z,15.3
2023-03-28T07:23:32.602Z,15.2
2023-03-28T07:29:42.313Z,15.3
2023-03-28T07:36:06.319Z,15.5
2023-03-28T07:41:26.795Z,15.6
2023-03-28T07:47:02.665Z,15.6
2023-03-28T07:52:54.019Z,15.4
2023-03-28T07:58:56.745Z,15.4
2023-03-28T08:04:48.893Z,15.3
2023-03-28T08:10:54.816Z,15.2
2023-03-28T08:16:46.956Z,15.1
2023-03-28T08:22:50.506Z,15.2
2023-03-28T08:28:36.676Z,15.4
2023-03-28T08:34:28.686Z,15.4
2023-03-28T08:40:23.570Z,15.4
2023-03-28T08:45:59.468Z,15.3
2023-03-28T08:51:54.355Z,15.2
2023-03-28T08:57:47.666Z,15.1
2023-03-28T09:03:42.142Z,15.1
2023-03-28T09:09:49.616Z,15.1
2023-03-28T09:15:25.684Z,15.1
2023-03-28T09:21:27.746Z,15.2
2023-03-28T09:27:32.722Z,15.3
2023-03-28T09:33:10.636Z,15.7
2023-03-28T09:39:13.827Z,15.7
2023-03-28T09:45:16.636Z,15.6
2023-03-28T09:51:19.542Z,15.6
2023-03-28T09:57:04.592Z,15.5
2023-03-28T10:02:57.370Z,15.4
2023-03-28T10:08:48.658Z,15.3
2023-03-28T10:14:39.619Z,15.4
2023-03-28T10:20:31.364Z,15.6
2023-03-28T10:26:21.824Z,15.6
2023-03-28T10:31:58.353Z,15.6
2023-03-28T10:37:51.851Z,15.4
2023-03-28T10:43:43.937Z,15.2
2023-03-28T10:49:35.283Z,15
2023-03-28T10:55:26.728Z,15.1
2023-03-28T11:01:19.225Z,15.2
2023-03-28T11:07:30.275Z,15.3
2023-03-28T11:13:37.975Z,15.1
2023-03-28T11:19:14.225Z,15.1
2023-03-28T11:25:17.775Z,15.2
2023-03-28T11:31:38.102Z,15
2023-03-28T11:37:14.298Z,15.2
2023-03-28T11:43:07.268Z,15.4
2023-03-28T11:49:12.888Z,15.6
2023-03-28T11:55:04.964Z,15.3
2023-03-28T12:01:06.019Z,15.1
2023-03-28T12:07:16.094Z,15.1
2023-03-28T12:13:07.134Z,15.2
2023-03-28T12:19:10.918Z,15.3
2023-03-28T12:25:04.019Z,15.4
2023-03-28T12:30:40.029Z,15.3
2023-03-28T12:36:32.809Z,15.2
2023-03-28T12:42:09.166Z,15.1
2023-03-28T12:48:01.662Z,15
2023-03-28T12:53:53.346Z,15.1
2023-03-28T12:59:47.455Z,15.3
2023-03-28T13:05:39.342Z,15.4
2023-03-28T13:11:31.562Z,15.3
2023-03-28T13:17:24.015Z,15.3
2023-03-28T13:23:00.572Z,15.2
2023-03-28T13:28:37.855Z,15.1
2023-03-28T13:34:29.822Z,15.3
2023-03-28T13:40:09.710Z,15.4
2023-03-28T13:45:45.366Z,15.6
2023-03-28T13:51:33.041Z,15.4
2023-03-28T13:57:37.628Z,15.3
2023-03-28T14:03:29.522Z,15.3
2023-03-28T14:09:22.795Z,15.3
2023-03-28T14:15:16.263Z,15.4
2023-03-28T14:21:08.667Z,15.6
2023-03-28T14:26:53.544Z,15.5
2023-03-28T14:32:56.850Z,15.4
2023-03-28T14:38:49.968Z,15.3
2023-03-28T14:44:41.399Z,15.2
2023-03-28T14:50:33.039Z,15.3
2023-03-28T14:56:26.774Z,15.1
2023-03-28T15:02:18.837Z,15.1
2023-03-28T15:07:57.713Z,15.1
2023-03-28T15:13:51.151Z,15.3
2023-03-28T15:19:43.623Z,28.4
2023-03-28T15:25:34.904Z,37.9
2023-03-28T15:31:28.922Z,38.8
2023-03-28T15:37:07.795Z,39.6
2023-03-28T15:42:58.820Z,39.4
2023-03-28T15:48:50.240Z,39.6
2023-03-28T15:55:01.143Z,41.5
2023-03-28T16:00:52.314Z,40.9
2023-03-28T16:06:47.789Z,38.4
2023-03-28T16:12:39.082Z,39.4
2023-03-28T16:18:15.791Z,39.5
2023-03-28T16:24:07.032Z,41.8
2023-03-28T16:29:44.123Z,41.5
2023-03-28T16:35:21.148Z,39.8
2023-03-28T16:41:12.984Z,38.4
2023-03-28T16:47:04.179Z,41.8
2023-03-28T16:52:55.075Z,40.3
2023-03-28T16:58:15.901Z,41.9
2023-03-28T17:04:09.338Z,42.3
2023-03-28T17:10:03.465Z,43.8
2023-03-28T17:15:55.416Z,42.9
2023-03-28T17:21:16.539Z,42.4
2023-03-28T17:27:24.192Z,42
2023-03-28T17:33:17.761Z,41.8
2023-03-28T17:39:10.237Z,41.3
2023-03-28T17:45:02.441Z,40.3
2023-03-28T17:50:57.624Z,42.7
2023-03-28T17:56:35.274Z,40.6
2023-03-28T18:02:11.982Z,40.7
2023-03-28T18:08:07.163Z,40.8
2023-03-28T18:13:59.374Z,39.2
2023-03-28T18:19:36.439Z,43.1
2023-03-28T18:25:11.695Z,40.2
2023-03-28T18:30:51.287Z,39.9
2023-03-28T18:36:47.759Z,41
2023-03-28T18:42:11.525Z,38.2
2023-03-28T18:48:04.370Z,39.6
2023-03-28T18:53:41.247Z,41.8
2023-03-28T18:59:18.792Z,42.4
2023-03-28T19:04:57.923Z,42.4
2023-03-28T19:10:20.092Z,41.3
2023-03-28T19:15:56.919Z,39.5
2023-03-28T19:21:21.797Z,37.6
2023-03-28T19:27:00.067Z,35.4
2023-03-28T19:32:53.884Z,33.4
2023-03-28T19:38:47.549Z,31.6
2023-03-28T19:44:11.578Z,30.2
2023-03-28T19:50:08.240Z,29.3
2023-03-28T19:56:01.330Z,28.4
2023-03-28T20:07:15.643Z,27.4
2023-03-28T20:12:54.936Z,26.9
2023-03-28T20:18:32.710Z,26.4
2023-03-28T20:24:24.496Z,26
2023-03-28T20:30:00.961Z,25.6
2023-03-28T20:35:52.799Z,25.3
2023-03-28T20:41:46.270Z,25.1
2023-03-28T20:47:22.900Z,23.4
2023-03-28T20:53:18.086Z,22.4
2023-03-28T20:59:10.447Z,21.6
2023-03-28T21:05:02.558Z,20.9
2023-03-28T21:10:53.733Z,20.3
2023-03-28T21:16:45.519Z,19.8
2023-03-28T21:22:21.430Z,19.4
2023-03-28T21:27:57.055Z,19
2023-03-28T21:38:55.921Z,18.4
2023-03-28T21:44:31.343Z,18.2
2023-03-28T21:49:21.653Z,17.9
2023-03-28T21:55:13.355Z,17.8
2023-03-28T22:01:06.784Z,17.8
2023-03-28T22:06:52.793Z,17.8
2023-03-28T22:11:43.114Z,17.6
2023-03-28T22:17:19.583Z,17.4
2023-03-28T22:22:40.023Z,17.3
2023-03-28T22:27:44.689Z,17.1
2023-03-28T22:33:20.939Z,16.9
2023-03-28T22:38:56.702Z,16.8
2023-03-28T22:44:32.536Z,16.6
2023-03-28T22:49:54.160Z,16.5
2023-03-28T22:55:30.618Z,16.4
2023-03-28T23:00:52.105Z,16.5
2023-03-28T23:06:44.079Z,16.6
2023-03-28T23:12:19.866Z,16.6
2023-03-28T23:18:11.996Z,16.5
2023-03-28T23:23:48.982Z,16.4
2023-03-28T23:29:42.766Z,16.2
2023-03-28T23:35:34.198Z,16.1
2023-03-28T23:41:26.301Z,16.1
2023-03-28T23:47:02.213Z,16
2023-03-28T23:52:23.125Z,16.1
2023-03-28T23:57:44.042Z,16.2
